createdAt,value
2017-09-02T00:00:56.446Z,7.37
2017-09-02T00:05:58.139Z,6.60
2017-09-02T00:10:59.892Z,9.40
2017-09-02T00:16:02.610Z,8.33
2017-09-02T00:21:04.285Z,5.87
2017-09-02T00:26:06.060Z,11.70
2017-09-02T00:31:07.909Z,8.23
2017-09-02T00:36:09.673Z,8.60
2017-09-02T00:41:12.124Z,8.90
2017-09-02T00:46:15.279Z,6.40
2017-09-02T00:51:17.644Z,11.73
2017-09-02T00:56:19.448Z,7.00
2017-09-02T01:01:22.350Z,12.43
2017-09-02T01:06:24.263Z,9.33
2017-09-02T01:11:26.802Z,9.63
2017-09-02T01:16:28.724Z,8.67
2017-09-02T01:21:30.398Z,9.47
2017-09-02T01:26:32.625Z,7.07
2017-09-02T01:31:34.422Z,8.03
2017-09-02T01:36:36.188Z,11.60
2017-09-02T01:41:38.361Z,7.73
2017-09-02T01:46:40.041Z,8.53
2017-09-02T01:51:41.736Z,7.10
2017-09-02T01:56:43.437Z,6.53
2017-09-02T02:01:45.184Z,7.53
2017-09-02T02:06:48.402Z,7.73
2017-09-02T02:11:50.141Z,12.00
2017-09-02T02:16:51.972Z,8.77
2017-09-02T02:21:53.747Z,6.47
2017-09-02T02:26:55.394Z,7.20
2017-09-02T02:31:57.788Z,8.70
2017-09-02T02:37:14.223Z,8.37
2017-09-02T02:42:30.746Z,6.70
2017-09-02T02:47:47.655Z,14.63
2017-09-02T02:53:04.626Z,10.17
2017-09-02T02:58:21.340Z,6.50
2017-09-02T03:03:37.928Z,6.90
2017-09-02T03:08:54.563Z,8.47
2017-09-02T03:14:10.972Z,8.10
2017-09-02T03:19:12.777Z,8.10
2017-09-02T03:24:14.447Z,14.23
2017-09-02T03:29:16.092Z,7.93
2017-09-02T03:34:17.765Z,10.10
2017-09-02T03:39:19.468Z,6.87
2017-09-02T03:44:21.138Z,8.53
2017-09-02T03:49:22.811Z,7.77
2017-09-02T03:54:24.486Z,6.00
2017-09-02T03:59:26.261Z,4.73
2017-09-02T04:04:27.933Z,8.00
2017-09-02T04:09:29.606Z,6.50
2017-09-02T04:14:31.252Z,5.83
2017-09-02T04:19:33.053Z,4.77
2017-09-02T04:24:34.725Z,8.70
2017-09-02T04:29:36.368Z,6.40
2017-09-02T04:34:38.647Z,4.37
2017-09-02T04:39:40.357Z,4.53
2017-09-02T04:44:42.104Z,5.20
2017-09-02T04:49:43.807Z,4.47
2017-09-02T04:54:45.420Z,5.47
2017-09-02T04:59:47.681Z,5.13
2017-09-02T05:04:49.437Z,3.90
2017-09-02T05:09:51.110Z,3.83
2017-09-02T05:14:53.400Z,4.93
2017-09-02T05:19:55.742Z,6.53
2017-09-02T05:24:58.145Z,4.07
2017-09-02T05:29:59.952Z,5.03
2017-09-02T05:35:02.296Z,4.63
2017-09-02T05:40:04.116Z,6.30
2017-09-02T05:45:05.744Z,6.03
2017-09-02T05:50:07.565Z,8.70
2017-09-02T05:55:10.465Z,5.67
2017-09-02T06:00:12.320Z,5.93
2017-09-02T06:05:14.016Z,4.33
2017-09-02T06:10:15.893Z,5.10
2017-09-02T06:15:17.568Z,3.63
2017-09-02T06:20:19.246Z,4.43
2017-09-02T06:25:20.886Z,4.17
2017-09-02T06:30:22.568Z,4.70
2017-09-02T06:35:24.320Z,8.47
2017-09-02T06:40:25.933Z,9.30
2017-09-02T06:45:27.557Z,4.80
2017-09-02T06:50:29.233Z,5.83
2017-09-02T06:55:30.897Z,8.27
2017-09-02T07:00:32.685Z,6.03
2017-09-02T07:05:34.461Z,7.47
2017-09-02T07:10:36.152Z,6.40
2017-09-02T07:15:37.829Z,8.57
2017-09-02T07:20:39.577Z,6.57
2017-09-02T07:25:41.348Z,5.93
2017-09-02T07:30:43.016Z,5.63
2017-09-02T07:35:44.779Z,6.17
2017-09-02T07:40:46.934Z,4.50
2017-09-02T07:45:53.492Z,4.73
2017-09-02T07:50:58.577Z,5.00
2017-09-02T07:56:04.953Z,6.77
2017-09-02T08:01:09.384Z,5.03
2017-09-02T08:06:11.340Z,6.30
2017-09-02T08:11:13.958Z,4.00
2017-09-02T08:16:18.190Z,4.60
2017-09-02T08:21:19.812Z,4.53
2017-09-02T08:26:22.265Z,5.73
2017-09-02T08:31:23.896Z,6.93
2017-09-02T08:36:25.903Z,5.13
2017-09-02T08:41:27.577Z,7.20
2017-09-02T08:46:29.980Z,7.63
2017-09-02T08:51:31.820Z,10.43
2017-09-02T08:56:34.884Z,7.30
2017-09-02T09:01:41.213Z,8.33
2017-09-02T09:06:45.142Z,5.87
2017-09-02T09:11:49.938Z,7.87
2017-09-02T09:16:55.297Z,7.97
2017-09-02T09:21:57.619Z,6.77
2017-09-02T09:26:59.321Z,5.67
2017-09-02T09:32:00.934Z,6.37
2017-09-02T09:37:02.657Z,8.53
2017-09-02T09:42:04.412Z,6.73
2017-09-02T09:47:06.092Z,6.07
2017-09-02T09:52:07.826Z,9.27
2017-09-02T09:57:09.564Z,6.00
2017-09-02T10:02:11.305Z,6.70
2017-09-02T10:07:12.980Z,7.13
2017-09-02T10:12:14.670Z,9.73
2017-09-02T10:17:17.420Z,5.63
2017-09-02T10:22:19.088Z,7.47
2017-09-02T10:27:20.793Z,7.70
2017-09-02T10:32:34.566Z,8.57
2017-09-02T10:37:38.148Z,8.47
2017-09-02T10:42:39.981Z,7.63
2017-09-02T10:47:41.608Z,6.57
2017-09-02T10:52:43.221Z,6.40
2017-09-02T10:57:45.770Z,5.53
2017-09-02T11:02:47.452Z,5.70
2017-09-02T11:07:49.104Z,5.87
2017-09-02T11:12:50.881Z,6.83
2017-09-02T11:17:52.580Z,7.50
2017-09-02T11:22:54.368Z,7.00
2017-09-02T11:27:56.021Z,7.10
2017-09-02T11:32:57.674Z,8.03
2017-09-02T11:37:59.488Z,7.20
2017-09-02T11:43:01.725Z,7.10
2017-09-02T11:48:04.427Z,5.27
2017-09-02T11:53:06.108Z,5.57
2017-09-02T11:58:08.654Z,7.30
2017-09-02T12:03:10.426Z,4.00
2017-09-02T12:08:12.068Z,8.93
2017-09-02T12:13:13.976Z,6.30
2017-09-02T12:18:15.706Z,5.60
2017-09-02T12:23:17.423Z,5.27
2017-09-02T12:28:19.072Z,4.40
2017-09-02T12:33:21.793Z,4.40
2017-09-02T12:38:23.424Z,4.40
2017-09-02T12:43:26.061Z,5.27
2017-09-02T12:48:30.368Z,2.60
2017-09-02T12:53:32.070Z,3.90
2017-09-02T12:58:33.916Z,3.90
2017-09-02T13:03:35.597Z,3.70
2017-09-02T13:08:38.725Z,3.97
2017-09-02T13:13:40.499Z,4.37
2017-09-02T13:18:42.172Z,4.63
2017-09-02T13:23:44.322Z,3.60
2017-09-02T13:28:46.105Z,3.93
2017-09-02T13:33:47.804Z,4.73
2017-09-02T13:38:49.434Z,4.03
2017-09-02T13:43:51.150Z,4.03
2017-09-02T13:48:52.821Z,4.03
2017-09-02T13:53:54.674Z,3.30
2017-09-02T13:58:56.475Z,3.23
2017-09-02T14:04:00.231Z,5.10
2017-09-02T14:09:02.277Z,3.90
2017-09-02T14:14:04.133Z,6.27
2017-09-02T14:19:06.854Z,4.30
2017-09-02T14:24:08.472Z,3.20
2017-09-02T14:29:11.017Z,4.80
2017-09-02T14:34:12.792Z,4.73
2017-09-02T14:39:14.463Z,4.47
2017-09-02T14:44:19.592Z,4.43
2017-09-02T14:49:22.356Z,4.97
2017-09-02T14:54:24.091Z,6.53
2017-09-02T14:59:25.712Z,5.70
2017-09-02T15:04:27.871Z,9.00
2017-09-02T15:09:29.573Z,6.47
2017-09-02T15:14:31.394Z,4.67
2017-09-02T15:19:33.043Z,4.10
2017-09-02T15:24:34.745Z,4.50
2017-09-02T15:29:36.838Z,3.57
2017-09-02T15:34:38.495Z,3.10
2017-09-02T15:39:40.271Z,4.17
2017-09-02T15:44:42.969Z,3.53
2017-09-02T15:49:44.572Z,3.57
2017-09-02T15:54:46.284Z,3.00
2017-09-02T15:59:48.048Z,8.10
2017-09-02T16:04:49.733Z,4.27
2017-09-02T16:09:51.538Z,3.97
2017-09-02T16:14:53.290Z,3.97
2017-09-02T16:19:54.961Z,3.90
2017-09-02T16:24:56.860Z,7.03
2017-09-02T16:29:58.636Z,5.80
2017-09-02T16:35:00.280Z,4.43
2017-09-02T16:40:02.087Z,5.73
2017-09-02T16:45:03.937Z,6.20
2017-09-02T16:50:05.816Z,4.87
2017-09-02T16:55:07.720Z,4.27
2017-09-02T17:00:09.575Z,4.63
2017-09-02T17:05:11.253Z,4.43
2017-09-02T17:10:13.353Z,5.20
2017-09-02T17:15:15.200Z,8.43
2017-09-02T17:20:17.540Z,6.60
2017-09-02T17:25:19.471Z,9.50
2017-09-02T17:30:21.459Z,4.63
2017-09-02T17:35:23.248Z,4.73
2017-09-02T17:40:25.844Z,5.67
2017-09-02T17:45:27.515Z,6.13
2017-09-02T17:50:29.146Z,5.93
2017-09-02T17:55:31.964Z,8.10
2017-09-02T18:00:34.683Z,6.37
2017-09-02T18:05:36.329Z,7.80
2017-09-02T18:10:37.978Z,6.83
2017-09-02T18:15:39.804Z,8.47
2017-09-02T18:20:41.983Z,8.80
2017-09-02T18:25:43.641Z,10.90
2017-09-02T18:30:45.436Z,8.30
2017-09-02T18:35:47.783Z,7.10
2017-09-02T18:40:49.572Z,9.20
2017-09-02T18:45:51.274Z,9.80
2017-09-02T18:50:53.150Z,9.10
2017-09-02T18:55:54.782Z,10.27
2017-09-02T19:00:56.499Z,7.30
2017-09-02T19:05:58.449Z,7.57
2017-09-02T19:11:00.357Z,9.53
2017-09-02T19:16:03.159Z,9.50
2017-09-02T19:21:04.927Z,9.47
2017-09-02T19:26:06.579Z,8.23
2017-09-02T19:31:08.477Z,9.43
2017-09-02T19:36:10.770Z,11.13
2017-09-02T19:41:12.980Z,12.07
2017-09-02T19:46:14.623Z,10.10
2017-09-02T19:51:16.909Z,9.97
2017-09-02T19:56:19.642Z,10.17
2017-09-02T20:01:21.279Z,10.30
2017-09-02T20:06:24.356Z,9.00
2017-09-02T20:11:26.261Z,11.30
2017-09-02T20:16:27.937Z,11.00
2017-09-02T20:21:31.452Z,9.20
2017-09-02T20:26:34.233Z,10.40
2017-09-02T20:31:36.220Z,10.17
2017-09-02T20:36:40.204Z,8.90
2017-09-02T20:41:41.910Z,9.80
2017-09-02T20:46:43.705Z,10.30
2017-09-02T20:51:45.400Z,11.57
2017-09-02T20:56:47.615Z,13.20
2017-09-02T21:01:50.104Z,13.20
2017-09-02T21:06:53.982Z,10.50
2017-09-02T21:11:56.328Z,14.33
2017-09-02T21:16:58.250Z,11.73
2017-09-02T21:22:00.023Z,7.97
2017-09-02T21:27:01.769Z,12.63
2017-09-02T21:32:03.544Z,11.33
2017-09-02T21:37:05.216Z,12.60
2017-09-02T21:42:07.096Z,12.27
2017-09-02T21:47:09.000Z,11.70
2017-09-02T21:52:10.644Z,10.10
2017-09-02T21:57:12.528Z,10.77
2017-09-02T22:02:14.429Z,12.70
2017-09-02T22:07:17.846Z,14.93
2017-09-02T22:12:19.488Z,21.57
2017-09-02T22:17:21.552Z,14.23
2017-09-02T22:22:23.132Z,15.40
2017-09-02T22:27:25.866Z,21.10
2017-09-02T22:32:27.638Z,15.53
2017-09-02T22:37:30.029Z,15.53
2017-09-02T22:42:31.703Z,17.87
2017-09-02T22:47:33.477Z,16.73
2017-09-02T22:52:35.250Z,19.07
2017-09-02T22:57:37.383Z,19.87
2017-09-02T23:02:39.108Z,22.00
2017-09-02T23:07:40.753Z,19.57
2017-09-02T23:12:42.432Z,21.37
2017-09-02T23:17:44.846Z,21.67
2017-09-02T23:22:46.464Z,23.60
2017-09-02T23:27:48.036Z,21.33
2017-09-02T23:32:49.630Z,17.80
2017-09-02T23:37:51.961Z,19.83
2017-09-02T23:42:53.718Z,19.87
2017-09-02T23:47:55.500Z,17.47
2017-09-02T23:52:57.269Z,26.23
2017-09-02T23:57:58.922Z,26.40
